sensor_id;sensor_type;location;lat;lon;timestamp;pressure;altitude;pressure_sealevel;temperature;humidity
40940;BME280;26666;50.156;7.700;2023-02-18T00:04:53;101273.38;;;10.13;100.00
40940;BME280;26666;50.156;7.700;2023-02-18T00:09:55;101283.81;;;10.15;100.00
40940;BME280;26666;50.156;7.700;2023-02-18T00:14:56;101269.06;;;10.12;100.00
40940;BME280;26666;50.156;7.700;2023-02-18T00:19:58;101266.50;;;10.11;100.00
40940;BME280;26666;50.156;7.700;2023-02-18T00:25:00;101273.78;;;10.07;100.00
40940;BME280;26666;50.156;7.700;2023-02-18T00:30:02;101282.56;;;10.07;100.00
40940;BME280;26666;50.156;7.700;2023-02-18T00:35:04;101287.97;;;10.06;100.00
40940;BME280;26666;50.156;7.700;2023-02-18T00:40:06;101289.00;;;10.03;100.00
40940;BME280;26666;50.156;7.700;2023-02-18T00:45:10;101291.34;;;10.08;100.00
40940;BME280;26666;50.156;7.700;2023-02-18T00:50:12;101280.56;;;10.11;100.00
40940;BME280;26666;50.156;7.700;2023-02-18T00:55:14;101281.94;;;10.04;100.00
40940;BME280;26666;50.156;7.700;2023-02-18T01:00:15;101293.53;;;10.01;100.00
40940;BME280;26666;50.156;7.700;2023-02-18T01:05:17;101288.16;;;10.03;100.00
40940;BME280;26666;50.156;7.700;2023-02-18T01:10:19;101278.53;;;10.02;100.00
40940;BME280;26666;50.156;7.700;2023-02-18T01:15:21;101289.50;;;9.96;100.00
40940;BME280;26666;50.156;7.700;2023-02-18T01:20:23;101282.34;;;9.98;100.00
40940;BME280;26666;50.156;7.700;2023-02-18T01:25:24;101281.59;;;9.96;100.00
40940;BME280;26666;50.156;7.700;2023-02-18T01:30:26;101261.44;;;9.95;100.00
40940;BME280;26666;50.156;7.700;2023-02-18T01:35:28;101254.47;;;9.94;100.00
40940;BME280;26666;50.156;7.700;2023-02-18T01:40:29;101251.19;;;9.90;100.00
40940;BME280;26666;50.156;7.700;2023-02-18T01:50:44;101245.28;;;9.99;100.00
40940;BME280;26666;50.156;7.700;2023-02-18T01:55:47;101234.59;;;9.88;100.00
40940;BME280;26666;50.156;7.700;2023-02-18T02:00:49;101232.31;;;9.96;100.00
40940;BME280;26666;50.156;7.700;2023-02-18T02:05:51;101221.09;;;9.93;100.00
40940;BME280;26666;50.156;7.700;2023-02-18T02:11:06;101209.56;;;9.94;100.00
40940;BME280;26666;50.156;7.700;2023-02-18T02:16:22;101204.63;;;9.89;100.00
40940;BME280;26666;50.156;7.700;2023-02-18T02:21:50;101199.97;;;9.93;100.00
40940;BME280;26666;50.156;7.700;2023-02-18T02:37:29;101191.63;;;9.86;100.00
40940;BME280;26666;50.156;7.700;2023-02-18T02:53:35;101185.41;;;9.87;100.00
40940;BME280;26666;50.156;7.700;2023-02-18T02:58:37;101174.53;;;9.92;100.00
40940;BME280;26666;50.156;7.700;2023-02-18T03:04:03;101179.81;;;9.92;100.00
40940;BME280;26666;50.156;7.700;2023-02-18T03:09:26;101185.31;;;9.89;100.00
40940;BME280;26666;50.156;7.700;2023-02-18T03:14:49;101174.63;;;9.90;100.00
40940;BME280;26666;50.156;7.700;2023-02-18T03:19:58;101155.31;;;9.90;100.00
40940;BME280;26666;50.156;7.700;2023-02-18T03:25:04;101158.28;;;9.85;100.00
40940;BME280;26666;50.156;7.700;2023-02-18T03:35:14;101159.13;;;9.85;100.00
40940;BME280;26666;50.156;7.700;2023-02-18T03:40:16;101155.66;;;9.85;100.00
40940;BME280;26666;50.156;7.700;2023-02-18T03:45:18;101144.84;;;9.88;100.00
40940;BME280;26666;50.156;7.700;2023-02-18T03:50:21;101138.94;;;9.84;100.00
40940;BME280;26666;50.156;7.700;2023-02-18T03:55:22;101135.34;;;9.85;100.00
40940;BME280;26666;50.156;7.700;2023-02-18T04:00:24;101123.00;;;9.86;100.00
40940;BME280;26666;50.156;7.700;2023-02-18T04:05:25;101128.72;;;9.80;100.00
40940;BME280;26666;50.156;7.700;2023-02-18T04:10:27;101124.47;;;9.90;100.00
40940;BME280;26666;50.156;7.700;2023-02-18T04:15:28;101109.34;;;9.92;100.00
40940;BME280;26666;50.156;7.700;2023-02-18T04:20:30;101099.47;;;9.83;100.00
40940;BME280;26666;50.156;7.700;2023-02-18T04:25:31;101112.03;;;9.79;100.00
40940;BME280;26666;50.156;7.700;2023-02-18T04:30:33;101122.78;;;9.89;100.00
40940;BME280;26666;50.156;7.700;2023-02-18T04:35:34;101124.69;;;9.87;100.00
40940;BME280;26666;50.156;7.700;2023-02-18T04:40:36;101118.44;;;9.88;100.00
40940;BME280;26666;50.156;7.700;2023-02-18T04:45:38;101106.13;;;9.89;100.00
40940;BME280;26666;50.156;7.700;2023-02-18T04:50:39;101098.31;;;9.87;100.00
40940;BME280;26666;50.156;7.700;2023-02-18T04:55:41;101103.47;;;9.89;100.00
40940;BME280;26666;50.156;7.700;2023-02-18T05:00:42;101110.78;;;9.85;100.00
40940;BME280;26666;50.156;7.700;2023-02-18T05:05:44;101104.22;;;9.91;100.00
40940;BME280;26666;50.156;7.700;2023-02-18T05:10:46;101093.22;;;9.84;100.00
40940;BME280;26666;50.156;7.700;2023-02-18T05:15:48;101095.56;;;9.76;100.00
40940;BME280;26666;50.156;7.700;2023-02-18T05:20:49;101090.69;;;9.82;100.00
40940;BME280;26666;50.156;7.700;2023-02-18T05:25:51;101096.50;;;9.87;100.00
40940;BME280;26666;50.156;7.700;2023-02-18T05:30:53;101093.34;;;9.82;100.00
40940;BME280;26666;50.156;7.700;2023-02-18T05:35:54;101082.38;;;9.89;100.00
40940;BME280;26666;50.156;7.700;2023-02-18T05:40:56;101073.72;;;9.74;100.00
40940;BME280;26666;50.156;7.700;2023-02-18T05:45:57;101069.47;;;9.84;100.00
40940;BME280;26666;50.156;7.700;2023-02-18T05:50:59;101064.09;;;9.85;100.00
40940;BME280;26666;50.156;7.700;2023-02-18T05:56:00;101067.25;;;9.91;100.00
40940;BME280;26666;50.156;7.700;2023-02-18T06:01:02;101062.28;;;9.86;100.00
40940;BME280;26666;50.156;7.700;2023-02-18T06:06:04;101066.91;;;9.95;100.00
40940;BME280;26666;50.156;7.700;2023-02-18T06:11:06;101072.41;;;9.92;100.00
40940;BME280;26666;50.156;7.700;2023-02-18T06:16:08;101063.53;;;9.93;100.00
40940;BME280;26666;50.156;7.700;2023-02-18T06:21:10;101069.56;;;9.95;100.00
40940;BME280;26666;50.156;7.700;2023-02-18T06:26:12;101058.38;;;9.92;100.00
40940;BME280;26666;50.156;7.700;2023-02-18T06:31:13;101046.97;;;9.91;100.00
40940;BME280;26666;50.156;7.700;2023-02-18T06:36:15;101062.63;;;9.81;100.00
40940;BME280;26666;50.156;7.700;2023-02-18T06:41:17;101068.09;;;9.78;100.00
40940;BME280;26666;50.156;7.700;2023-02-18T06:46:18;101052.59;;;9.86;100.00
40940;BME280;26666;50.156;7.700;2023-02-18T06:51:20;101044.16;;;9.81;100.00
40940;BME280;26666;50.156;7.700;2023-02-18T06:56:22;101050.16;;;9.83;100.00
40940;BME280;26666;50.156;7.700;2023-02-18T07:01:23;101042.97;;;9.85;100.00
40940;BME280;26666;50.156;7.700;2023-02-18T07:06:24;101048.81;;;9.78;100.00
40940;BME280;26666;50.156;7.700;2023-02-18T07:11:26;101024.53;;;9.73;100.00
40940;BME280;26666;50.156;7.700;2023-02-18T07:16:28;101036.34;;;9.80;100.00
40940;BME280;26666;50.156;7.700;2023-02-18T07:21:29;101033.16;;;9.75;100.00
40940;BME280;26666;50.156;7.700;2023-02-18T07:26:31;101035.59;;;9.78;100.00
40940;BME280;26666;50.156;7.700;2023-02-18T07:31:33;101032.38;;;9.61;100.00
40940;BME280;26666;50.156;7.700;2023-02-18T07:36:34;101020.66;;;9.65;100.00
40940;BME280;26666;50.156;7.700;2023-02-18T07:41:36;101003.19;;;9.89;100.00
40940;BME280;26666;50.156;7.700;2023-02-18T07:46:39;101003.50;;;9.84;100.00
40940;BME280;26666;50.156;7.700;2023-02-18T07:51:41;101016.06;;;9.80;100.00
40940;BME280;26666;50.156;7.700;2023-02-18T07:56:43;101005.28;;;9.83;100.00
40940;BME280;26666;50.156;7.700;2023-02-18T08:01:45;101011.81;;;9.91;100.00
40940;BME280;26666;50.156;7.700;2023-02-18T08:06:48;101020.56;;;9.91;100.00
40940;BME280;26666;50.156;7.700;2023-02-18T08:11:49;101016.88;;;9.94;100.00
40940;BME280;26666;50.156;7.700;2023-02-18T08:16:51;101016.97;;;9.92;100.00
40940;BME280;26666;50.156;7.700;2023-02-18T08:21:52;101027.31;;;9.95;100.00
40940;BME280;26666;50.156;7.700;2023-02-18T08:26:54;101048.25;;;9.85;100.00
40940;BME280;26666;50.156;7.700;2023-02-18T08:32:01;101062.28;;;9.99;100.00
40940;BME280;26666;50.156;7.700;2023-02-18T08:37:02;101046.63;;;9.96;100.00
40940;BME280;26666;50.156;7.700;2023-02-18T08:42:04;101048.97;;;10.00;100.00
40940;BME280;26666;50.156;7.700;2023-02-18T08:47:06;101041.34;;;9.96;100.00
40940;BME280;26666;50.156;7.700;2023-02-18T08:52:27;101043.44;;;10.03;100.00
40940;BME280;26666;50.156;7.700;2023-02-18T08:57:29;101053.00;;;9.93;100.00
40940;BME280;26666;50.156;7.700;2023-02-18T09:02:30;101070.56;;;10.05;100.00
40940;BME280;26666;50.156;7.700;2023-02-18T09:07:32;101060.00;;;10.05;100.00
40940;BME280;26666;50.156;7.700;2023-02-18T09:12:34;101050.63;;;10.01;100.00
40940;BME280;26666;50.156;7.700;2023-02-18T09:17:35;101049.00;;;10.12;100.00
40940;BME280;26666;50.156;7.700;2023-02-18T09:22:37;101053.34;;;10.13;100.00
40940;BME280;26666;50.156;7.700;2023-02-18T09:27:38;101065.94;;;10.09;100.00
40940;BME280;26666;50.156;7.700;2023-02-18T09:32:40;101071.31;;;10.07;100.00
40940;BME280;26666;50.156;7.700;2023-02-18T09:37:41;101085.38;;;10.08;100.00
40940;BME280;26666;50.156;7.700;2023-02-18T09:42:43;101071.84;;;10.13;100.00
40940;BME280;26666;50.156;7.700;2023-02-18T09:47:45;101089.47;;;10.12;100.00
40940;BME280;26666;50.156;7.700;2023-02-18T09:52:47;101086.09;;;10.10;100.00
40940;BME280;26666;50.156;7.700;2023-02-18T09:57:52;101085.78;;;10.15;100.00
40940;BME280;26666;50.156;7.700;2023-02-18T10:02:56;101083.75;;;10.18;100.00
40940;BME280;26666;50.156;7.700;2023-02-18T10:08:10;101064.91;;;10.23;100.00
40940;BME280;26666;50.156;7.700;2023-02-18T10:13:21;101064.19;;;10.21;100.00
40940;BME280;26666;50.156;7.700;2023-02-18T10:18:38;101056.06;;;10.24;100.00
40940;BME280;26666;50.156;7.700;2023-02-18T10:23:50;101057.97;;;10.22;100.00
40940;BME280;26666;50.156;7.700;2023-02-18T10:28:53;101057.25;;;10.20;100.00
40940;BME280;26666;50.156;7.700;2023-02-18T10:34:04;101032.66;;;10.06;100.00
40940;BME280;26666;50.156;7.700;2023-02-18T10:39:33;101039.19;;;10.14;100.00
40940;BME280;26666;50.156;7.700;2023-02-18T10:50:02;101018.66;;;10.17;100.00
40940;BME280;26666;50.156;7.700;2023-02-18T10:55:13;101026.91;;;10.25;100.00
40940;BME280;26666;50.156;7.700;2023-02-18T11:00:20;101029.75;;;10.22;100.00
40940;BME280;26666;50.156;7.700;2023-02-18T11:05:25;101020.13;;;10.34;100.00
40940;BME280;26666;50.156;7.700;2023-02-18T11:10:33;101013.88;;;10.35;100.00
40940;BME280;26666;50.156;7.700;2023-02-18T11:15:36;101018.09;;;10.38;100.00
40940;BME280;26666;50.156;7.700;2023-02-18T11:20:38;101016.78;;;10.43;100.00
40940;BME280;26666;50.156;7.700;2023-02-18T11:25:41;101013.88;;;10.35;100.00
40940;BME280;26666;50.156;7.700;2023-02-18T11:30:55;100989.03;;;10.38;100.00
40940;BME280;26666;50.156;7.700;2023-02-18T11:35:58;100973.59;;;10.56;100.00
40940;BME280;26666;50.156;7.700;2023-02-18T11:41:09;100961.13;;;10.69;100.00
40940;BME280;26666;50.156;7.700;2023-02-18T11:46:18;100934.59;;;10.93;100.00
40940;BME280;26666;50.156;7.700;2023-02-18T11:51:41;100927.28;;;11.08;100.00
40940;BME280;26666;50.156;7.700;2023-02-18T11:56:57;100917.03;;;11.15;100.00
40940;BME280;26666;50.156;7.700;2023-02-18T12:07:19;100889.81;;;11.58;100.00
40940;BME280;26666;50.156;7.700;2023-02-18T12:12:29;100882.59;;;11.60;100.00
40940;BME280;26666;50.156;7.700;2023-02-18T12:23:13;100875.50;;;11.60;100.00
40940;BME280;26666;50.156;7.700;2023-02-18T12:44:37;100879.81;;;11.61;100.00
40940;BME280;26666;50.156;7.700;2023-02-18T12:49:54;100913.28;;;11.51;100.00
40940;BME280;26666;50.156;7.700;2023-02-18T13:16:11;100924.25;;;11.47;100.00
40940;BME280;26666;50.156;7.700;2023-02-18T13:21:15;100925.09;;;11.47;100.00
40940;BME280;26666;50.156;7.700;2023-02-18T13:26:18;100923.97;;;11.50;100.00
40940;BME280;26666;50.156;7.700;2023-02-18T13:31:34;100920.78;;;11.35;100.00
40940;BME280;26666;50.156;7.700;2023-02-18T13:36:43;100924.88;;;11.16;100.00
40940;BME280;26666;50.156;7.700;2023-02-18T13:41:48;100942.66;;;11.37;100.00
40940;BME280;26666;50.156;7.700;2023-02-18T13:46:55;100932.78;;;11.39;100.00
40940;BME280;26666;50.156;7.700;2023-02-18T13:51:59;100943.38;;;11.50;100.00
40940;BME280;26666;50.156;7.700;2023-02-18T13:57:04;100947.94;;;11.48;100.00
40940;BME280;26666;50.156;7.700;2023-02-18T14:07:51;100946.38;;;11.34;100.00
40940;BME280;26666;50.156;7.700;2023-02-18T14:33:35;100964.66;;;11.15;100.00
40940;BME280;26666;50.156;7.700;2023-02-18T14:44:03;100970.19;;;11.12;100.00
40940;BME280;26666;50.156;7.700;2023-02-18T14:54:30;100973.22;;;11.07;100.00
40940;BME280;26666;50.156;7.700;2023-02-18T14:59:39;100966.59;;;11.01;100.00
40940;BME280;26666;50.156;7.700;2023-02-18T15:04:41;100968.38;;;11.01;100.00
40940;BME280;26666;50.156;7.700;2023-02-18T15:09:47;100960.59;;;10.99;100.00
40940;BME280;26666;50.156;7.700;2023-02-18T15:14:51;100971.50;;;10.95;100.00
40940;BME280;26666;50.156;7.700;2023-02-18T15:20:03;100959.63;;;11.00;100.00
40940;BME280;26666;50.156;7.700;2023-02-18T15:25:10;100956.94;;;10.89;100.00
40940;BME280;26666;50.156;7.700;2023-02-18T15:30:27;100951.19;;;10.95;100.00
40940;BME280;26666;50.156;7.700;2023-02-18T15:35:31;100954.81;;;10.94;100.00
40940;BME280;26666;50.156;7.700;2023-02-18T15:40:36;100959.00;;;10.97;100.00
40940;BME280;26666;50.156;7.700;2023-02-18T15:45:41;100959.47;;;10.91;100.00
40940;BME280;26666;50.156;7.700;2023-02-18T15:50:49;100956.94;;;10.89;100.00
40940;BME280;26666;50.156;7.700;2023-02-18T15:55:53;100960.78;;;10.85;100.00
40940;BME280;26666;50.156;7.700;2023-02-18T16:00:57;100964.78;;;10.91;100.00
40940;BME280;26666;50.156;7.700;2023-02-18T16:06:38;100957.06;;;10.88;100.00
40940;BME280;26666;50.156;7.700;2023-02-18T16:11:53;100963.69;;;10.82;100.00
40940;BME280;26666;50.156;7.700;2023-02-18T16:22:23;100962.84;;;10.70;100.00
40940;BME280;26666;50.156;7.700;2023-02-18T16:27:32;100969.78;;;10.71;100.00
40940;BME280;26666;50.156;7.700;2023-02-18T16:32:34;100961.13;;;10.69;100.00
40940;BME280;26666;50.156;7.700;2023-02-18T16:37:36;100953.91;;;10.60;100.00
40940;BME280;26666;50.156;7.700;2023-02-18T16:42:38;100974.31;;;10.58;100.00
40940;BME280;26666;50.156;7.700;2023-02-18T16:47:47;100972.88;;;10.54;100.00
40940;BME280;26666;50.156;7.700;2023-02-18T16:52:49;100965.91;;;10.53;100.00
40940;BME280;26666;50.156;7.700;2023-02-18T16:57:50;100983.78;;;10.49;100.00
40940;BME280;26666;50.156;7.700;2023-02-18T17:02:54;100982.66;;;10.40;100.00
40940;BME280;26666;50.156;7.700;2023-02-18T17:08:11;100982.66;;;10.40;100.00
40940;BME280;26666;50.156;7.700;2023-02-18T17:13:20;100980.03;;;10.40;100.00
40940;BME280;26666;50.156;7.700;2023-02-18T17:18:23;100993.22;;;10.40;100.00
40940;BME280;26666;50.156;7.700;2023-02-18T17:23:25;100976.66;;;10.38;100.00
40940;BME280;26666;50.156;7.700;2023-02-18T17:28:27;100983.13;;;10.34;100.00
40940;BME280;26666;50.156;7.700;2023-02-18T17:33:29;100982.41;;;10.32;100.00
40940;BME280;26666;50.156;7.700;2023-02-18T17:38:30;100994.69;;;10.20;100.00
40940;BME280;26666;50.156;7.700;2023-02-18T17:43:33;101003.84;;;10.27;100.00
40940;BME280;26666;50.156;7.700;2023-02-18T17:48:34;100998.75;;;10.37;100.00
40940;BME280;26666;50.156;7.700;2023-02-18T17:53:36;101016.00;;;10.30;100.00
40940;BME280;26666;50.156;7.700;2023-02-18T17:58:37;101014.72;;;10.36;100.00
40940;BME280;26666;50.156;7.700;2023-02-18T18:03:39;101020.84;;;10.36;100.00
40940;BME280;26666;50.156;7.700;2023-02-18T18:08:40;101018.94;;;10.38;100.00
40940;BME280;26666;50.156;7.700;2023-02-18T18:13:42;101026.00;;;10.38;100.00
40940;BME280;26666;50.156;7.700;2023-02-18T18:18:44;101026.22;;;10.35;100.00
40940;BME280;26666;50.156;7.700;2023-02-18T18:23:46;101022.22;;;10.29;100.00
40940;BME280;26666;50.156;7.700;2023-02-18T18:28:48;101018.84;;;10.27;100.00
40940;BME280;26666;50.156;7.700;2023-02-18T18:33:50;101012.72;;;10.26;100.00
40940;BME280;26666;50.156;7.700;2023-02-18T18:38:52;101000.25;;;10.29;100.00
40940;BME280;26666;50.156;7.700;2023-02-18T18:43:53;101013.38;;;10.30;100.00
40940;BME280;26666;50.156;7.700;2023-02-18T18:48:55;101001.94;;;10.30;100.00
40940;BME280;26666;50.156;7.700;2023-02-18T18:53:57;101019.28;;;10.34;100.00
40940;BME280;26666;50.156;7.700;2023-02-18T18:58:58;101014.22;;;10.31;100.00
40940;BME280;26666;50.156;7.700;2023-02-18T19:04:00;101017.06;;;10.27;100.00
40940;BME280;26666;50.156;7.700;2023-02-18T19:09:01;101012.72;;;10.26;100.00
40940;BME280;26666;50.156;7.700;2023-02-18T19:14:03;101020.38;;;10.18;100.00
40940;BME280;26666;50.156;7.700;2023-02-18T19:19:04;101021.31;;;10.17;100.00
40940;BME280;26666;50.156;7.700;2023-02-18T19:24:08;101019.75;;;10.15;100.00
40940;BME280;26666;50.156;7.700;2023-02-18T19:29:09;101014.38;;;10.16;100.00
40940;BME280;26666;50.156;7.700;2023-02-18T19:34:11;101005.25;;;10.20;100.00
40940;BME280;26666;50.156;7.700;2023-02-18T19:39:12;100999.00;;;10.21;100.00
40940;BME280;26666;50.156;7.700;2023-02-18T19:44:14;100997.13;;;10.23;100.00
40940;BME280;26666;50.156;7.700;2023-02-18T19:49:15;101005.53;;;10.29;100.00
40940;BME280;26666;50.156;7.700;2023-02-18T19:54:17;101001.22;;;10.27;100.00
40940;BME280;26666;50.156;7.700;2023-02-18T19:59:18;100992.56;;;10.25;100.00
40940;BME280;26666;50.156;7.700;2023-02-18T20:04:21;100994.78;;;10.19;100.00
40940;BME280;26666;50.156;7.700;2023-02-18T20:09:22;100998.44;;;10.29;100.00
40940;BME280;26666;50.156;7.700;2023-02-18T20:14:24;100991.69;;;10.25;100.00
40940;BME280;26666;50.156;7.700;2023-02-18T20:19:27;100990.88;;;10.24;100.00
40940;BME280;26666;50.156;7.700;2023-02-18T20:24:32;100982.00;;;10.25;100.00
40940;BME280;26666;50.156;7.700;2023-02-18T20:29:34;100981.28;;;10.23;100.00
40940;BME280;26666;50.156;7.700;2023-02-18T20:34:36;100990.50;;;10.29;100.00
40940;BME280;26666;50.156;7.700;2023-02-18T20:39:38;100982.44;;;10.19;100.00
40940;BME280;26666;50.156;7.700;2023-02-18T20:44:39;100973.19;;;10.14;100.00
40940;BME280;26666;50.156;7.700;2023-02-18T20:49:41;100966.00;;;10.27;100.00
40940;BME280;26666;50.156;7.700;2023-02-18T20:54:42;100957.78;;;10.32;100.00
40940;BME280;26666;50.156;7.700;2023-02-18T20:59:44;100961.81;;;10.24;100.00
40940;BME280;26666;50.156;7.700;2023-02-18T21:04:45;100960.72;;;10.27;100.00
40940;BME280;26666;50.156;7.700;2023-02-18T21:09:47;100974.81;;;10.27;100.00
40940;BME280;26666;50.156;7.700;2023-02-18T21:14:48;100958.81;;;10.29;100.00
40940;BME280;26666;50.156;7.700;2023-02-18T21:19:50;100962.22;;;10.31;100.00
40940;BME280;26666;50.156;7.700;2023-02-18T21:24:51;100952.78;;;10.16;100.00
40940;BME280;26666;50.156;7.700;2023-02-18T21:29:53;100949.13;;;10.30;100.00
40940;BME280;26666;50.156;7.700;2023-02-18T21:34:54;100949.13;;;10.30;100.00
40940;BME280;26666;50.156;7.700;2023-02-18T21:39:56;100932.00;;;10.35;100.00
40940;BME280;26666;50.156;7.700;2023-02-18T21:44:57;100926.28;;;10.29;100.00
40940;BME280;26666;50.156;7.700;2023-02-18T21:49:59;100925.31;;;10.18;100.00
40940;BME280;26666;50.156;7.700;2023-02-18T21:55:00;100922.66;;;10.18;100.00
40940;BME280;26666;50.156;7.700;2023-02-18T22:00:03;100923.00;;;10.14;100.00
40940;BME280;26666;50.156;7.700;2023-02-18T22:05:20;100925.66;;;10.25;100.00
40940;BME280;26666;50.156;7.700;2023-02-18T22:10:21;100913.31;;;10.25;100.00
40940;BME280;26666;50.156;7.700;2023-02-18T22:15:23;100903.50;;;10.27;100.00
40940;BME280;26666;50.156;7.700;2023-02-18T22:20:25;100903.94;;;10.21;100.00
40940;BME280;26666;50.156;7.700;2023-02-18T22:25:26;100898.16;;;10.16;100.00
40940;BME280;26666;50.156;7.700;2023-02-18T22:30:28;100894.69;;;10.16;100.00
40940;BME280;26666;50.156;7.700;2023-02-18T22:35:29;100892.63;;;10.19;100.00
40940;BME280;26666;50.156;7.700;2023-02-18T22:40:32;100881.13;;;10.20;100.00
40940;BME280;26666;50.156;7.700;2023-02-18T22:45:36;100876.34;;;10.25;100.00
40940;BME280;26666;50.156;7.700;2023-02-18T22:50:38;100890.06;;;10.31;100.00
40940;BME280;26666;50.156;7.700;2023-02-18T22:55:39;100882.97;;;10.31;100.00
40940;BME280;26666;50.156;7.700;2023-02-18T23:00:41;100875.38;;;10.26;100.00
40940;BME280;26666;50.156;7.700;2023-02-18T23:05:42;100887.97;;;10.23;100.00
40940;BME280;26666;50.156;7.700;2023-02-18T23:10:44;100882.69;;;10.23;100.00
40940;BME280;26666;50.156;7.700;2023-02-18T23:15:54;100880.50;;;10.17;100.00
40940;BME280;26666;50.156;7.700;2023-02-18T23:21:01;100861.09;;;10.29;100.00
40940;BME280;26666;50.156;7.700;2023-02-18T23:26:03;100854.94;;;10.17;100.00
40940;BME280;26666;50.156;7.700;2023-02-18T23:31:05;100850.66;;;10.27;100.00
40940;BME280;26666;50.156;7.700;2023-02-18T23:36:14;100865.06;;;10.23;100.00
40940;BME280;26666;50.156;7.700;2023-02-18T23:41:17;100852.69;;;10.24;100.00
40940;BME280;26666;50.156;7.700;2023-02-18T23:46:20;100832.78;;;10.31;100.00
40940;BME280;26666;50.156;7.700;2023-02-18T23:51:22;100833.47;;;10.22;100.00
40940;BME280;26666;50.156;7.700;2023-02-18T23:56:25;100823.75;;;10.22;100.00
